Time;durP1;ratioP1;P1;durP2;ratioP2;P2;SDS_P1;SDS_P2;PMS_P1;PMS_P2;Temp;Humidity;BMP_temperature;BMP_pressure;BME280_temperature;BME280_humidity;BME280_pressure;Samples;Min_cycle;Max_cycle;Signal;HPM_P1;HPM_P2
2021/09/01 00:00:18;;;;;;;19.58;11.65;;;;;;;17.87;78.04;98185.50;4714878;30;20057;-59
2021/09/01 00:02:44;;;;;;;14.10;10.63;;;;;;;17.90;77.66;98185.66;4714813;30;20512;-60
2021/09/01 00:05:10;;;;;;;18.73;11.70;;;;;;;17.94;77.11;98185.81;4715879;30;20056;-61
2021/09/01 00:07:37;;;;;;;20.85;11.90;;;;;;;17.96;77.34;98185.50;4700531;30;20057;-61
2021/09/01 00:10:05;;;;;;;19.48;13.32;;;;;;;17.97;77.42;98187.88;4700057;30;20464;-59
2021/09/01 00:12:31;;;;;;;20.10;12.82;;;;;;;17.99;76.96;98195.59;4700635;30;20072;-59
2021/09/01 00:14:56;;;;;;;18.95;12.27;;;;;;;17.97;77.07;98187.06;4716011;30;20566;-60
2021/09/01 00:17:22;;;;;;;19.30;13.00;;;;;;;18.01;77.04;98188.81;4700333;30;20080;-60
2021/09/01 00:19:49;;;;;;;18.60;12.75;;;;;;;17.99;76.79;98182.97;4715943;30;20532;-59
2021/09/01 00:22:15;;;;;;;21.50;13.45;;;;;;;18.00;76.58;98181.06;4716195;30;20048;-60
2021/09/01 00:24:41;;;;;;;20.17;13.10;;;;;;;18.01;76.36;98178.09;4716190;30;20060;-61
2021/09/01 00:27:07;;;;;;;21.40;11.40;;;;;;;18.03;76.13;98172.41;4716065;30;20140;-60
2021/09/01 00:29:35;;;;;;;20.08;12.23;;;;;;;18.05;76.31;98172.88;4685979;30;20203;-61
2021/09/01 00:32:02;;;;;;;17.88;11.18;;;;;;;18.06;76.26;98171.78;4715953;30;20179;-61
2021/09/01 00:34:28;;;;;;;21.20;14.30;;;;;;;18.07;76.48;98168.00;4714652;30;20072;-61
2021/09/01 00:36:54;;;;;;;23.05;13.60;;;;;;;18.08;77.18;98165.00;4714538;30;20045;-59
2021/09/01 00:39:20;;;;;;;17.80;13.57;;;;;;;18.08;77.09;98173.03;4714561;30;20049;-60
2021/09/01 00:41:47;;;;;;;19.23;12.63;;;;;;;18.08;76.46;98166.88;4715826;30;20420;-59
2021/09/01 00:44:24;;;;;;;18.05;11.75;;;;;;;18.04;75.91;98153.34;4685597;30;20060;-60
2021/09/01 00:46:56;;;;;;;20.13;12.43;;;;;;;18.13;75.51;98159.47;4699901;30;20136;-60
2021/09/01 00:49:26;;;;;;;18.25;11.82;;;;;;;18.13;75.88;98151.44;4715536;30;20053;-60
2021/09/01 00:51:53;;;;;;;;;;;;;;;18.12;75.89;98149.06;4716045;30;20052;-60
2021/09/01 00:54:24;;;;;;;17.90;12.10;;;;;;;18.10;76.06;98145.91;4715641;30;19935;-61
2021/09/01 00:56:52;;;;;;;20.17;12.15;;;;;;;18.09;76.44;98144.34;4715785;30;20053;-59
2021/09/01 00:59:45;;;;;;;22.50;13.18;;;;;;;18.07;77.23;98133.94;4715619;30;20591;-59
2021/09/01 01:02:11;;;;;;;20.15;12.65;;;;;;;18.05;76.98;98132.66;4715655;30;20084;-60
2021/09/01 01:04:37;;;;;;;18.05;13.10;;;;;;;18.05;77.25;98121.94;4715516;30;20072;-62
2021/09/01 01:07:06;;;;;;;20.20;12.38;;;;;;;18.05;77.03;98114.69;4715698;30;20053;-60
2021/09/01 01:09:34;;;;;;;22.85;12.45;;;;;;;18.05;77.13;98119.25;4715440;30;20536;-60
2021/09/01 01:12:09;;;;;;;18.85;12.35;;;;;;;18.02;77.76;98109.94;4715808;30;20052;-60
2021/09/01 01:14:38;;;;;;;19.30;11.57;;;;;;;17.99;77.21;98101.75;4715542;30;20098;-61
2021/09/01 01:17:05;;;;;;;17.85;11.88;;;;;;;17.96;77.55;98102.41;4715483;30;20053;-59
2021/09/01 01:19:31;;;;;;;18.90;11.90;;;;;;;17.89;78.18;98094.84;4715348;30;20048;-61
2021/09/01 01:21:57;;;;;;;20.35;11.27;;;;;;;17.87;78.20;98095.13;4699816;30;20083;-60
2021/09/01 01:24:44;;;;;;;17.35;11.10;;;;;;;17.82;77.91;98087.25;4714200;30;20053;-60
2021/09/01 01:27:22;;;;;;;18.33;11.02;;;;;;;17.81;77.25;98096.41;4715509;30;20139;-59
2021/09/01 01:29:49;;;;;;;17.02;11.45;;;;;;;17.76;78.24;98088.50;4715537;30;20093;-60
2021/09/01 01:32:15;;;;;;;17.13;10.93;;;;;;;17.74;78.24;98079.22;4715205;30;20045;-60
2021/09/01 01:34:41;;;;;;;19.63;10.52;;;;;;;17.74;77.86;98079.22;4714172;30;20099;-60
2021/09/01 01:37:09;;;;;;;16.75;9.55;;;;;;;17.73;77.90;98067.69;4715430;30;20081;-60
2021/09/01 01:39:35;;;;;;;18.48;11.30;;;;;;;17.80;77.98;98070.72;4699583;30;20065;-60
2021/09/01 01:42:01;;;;;;;17.33;11.10;;;;;;;17.82;77.92;98071.16;4685345;30;20049;-59
2021/09/01 01:44:27;;;;;;;18.58;11.00;;;;;;;17.84;78.30;98074.31;4714590;30;20049;-61
2021/09/01 01:46:53;;;;;;;23.02;14.27;;;;;;;17.81;79.19;98074.97;4718310;30;20080;-60
2021/09/01 01:49:19;;;;;;;21.52;14.38;;;;;;;17.81;79.51;98066.91;4718325;30;20517;-60
2021/09/01 01:51:51;;;;;;;28.02;15.98;;;;;;;17.78;80.04;98062.19;4718299;30;20052;-60
2021/09/01 01:54:16;;;;;;;20.33;13.00;;;;;;;17.74;79.84;98055.88;4718263;30;20521;-60
2021/09/01 01:56:43;;;;;;;19.40;12.50;;;;;;;17.75;79.65;98046.72;4718262;30;20049;-60
2021/09/01 01:59:09;;;;;;;26.17;12.75;;;;;;;17.67;79.53;98036.78;4718407;30;20060;-61
2021/09/01 02:01:35;;;;;;;22.75;11.48;;;;;;;17.64;79.77;98034.75;4716920;30;20144;-60
2021/09/01 02:04:01;;;;;;;18.27;12.25;;;;;;;17.59;80.36;98027.66;4718358;30;20080;-61
2021/09/01 02:06:27;;;;;;;17.83;11.57;;;;;;;17.53;80.33;98025.44;4702612;30;20555;-59
2021/09/01 02:08:53;;;;;;;20.60;11.95;;;;;;;17.48;80.18;98013.81;4702348;30;20140;-61
2021/09/01 02:11:18;;;;;;;20.73;12.52;;;;;;;17.45;80.43;98021.69;4717938;30;20549;-59
2021/09/01 02:13:44;;;;;;;22.77;12.13;;;;;;;17.38;80.76;98011.44;4702591;30;20057;-61
2021/09/01 02:16:10;;;;;;;23.48;12.80;;;;;;;17.33;81.00;98003.56;4718164;30;20055;-59
2021/09/01 02:18:36;;;;;;;22.90;12.48;;;;;;;17.27;81.25;98004.03;4717891;30;20065;-59
2021/09/01 02:21:01;;;;;;;17.40;11.82;;;;;;;17.23;81.30;98001.19;4717880;30;20041;-59
2021/09/01 02:23:27;;;;;;;21.88;12.23;;;;;;;17.16;81.54;97990.16;4717803;30;20533;-59
2021/09/01 02:25:53;;;;;;;28.38;13.32;;;;;;;17.12;81.76;97995.38;4718056;30;20144;-60
2021/09/01 02:28:19;;;;;;;17.00;11.88;;;;;;;17.07;81.95;97992.84;4718092;30;20139;-60
2021/09/01 02:30:45;;;;;;;19.92;11.70;;;;;;;17.03;81.40;97984.66;4717717;30;20084;-61
2021/09/01 02:33:10;;;;;;;18.33;11.30;;;;;;;17.07;81.15;97976.00;4702280;30;20123;-59
2021/09/01 02:35:36;;;;;;;23.90;12.23;;;;;;;17.08;81.19;97972.19;4717906;30;20053;-62
2021/09/01 02:38:04;;;;;;;20.27;12.43;;;;;;;17.10;80.99;97968.13;4717930;30;20115;-59
2021/09/01 02:40:30;;;;;;;15.90;11.75;;;;;;;17.13;80.70;97962.13;4701933;30;20083;-60
2021/09/01 02:42:55;;;;;;;24.60;14.63;;;;;;;17.17;80.51;97968.41;4717893;30;20056;-59
2021/09/01 02:45:21;;;;;;;30.20;16.48;;;;;;;17.18;80.23;97969.22;4717536;30;20049;-61
2021/09/01 02:47:48;;;;;;;26.13;13.75;;;;;;;17.21;79.64;97972.06;4701693;30;20065;-60
2021/09/01 02:50:14;;;;;;;25.27;14.70;;;;;;;17.28;79.26;97970.78;4716522;30;20057;-62
2021/09/01 02:52:41;;;;;;;23.00;12.35;;;;;;;17.31;79.05;97973.63;4717669;30;20041;-60
2021/09/01 02:55:07;;;;;;;21.05;12.20;;;;;;;17.34;79.16;97978.34;4716153;30;20053;-60
2021/09/01 02:57:33;;;;;;;19.85;12.55;;;;;;;17.39;79.12;97972.06;4716481;30;20146;-61
2021/09/01 02:59:59;;;;;;;27.48;15.05;;;;;;;17.40;79.17;97976.31;4701526;30;20143;-60
2021/09/01 03:02:25;;;;;;;25.95;14.63;;;;;;;17.44;79.14;97975.38;4717321;30;20049;-59
2021/09/01 03:04:51;;;;;;;26.13;14.25;;;;;;;17.48;78.58;97976.28;4717225;30;20069;-60
2021/09/01 03:07:16;;;;;;;21.25;14.07;;;;;;;17.52;78.99;97967.63;4716084;30;20052;-60
2021/09/01 03:09:42;;;;;;;24.42;14.55;;;;;;;17.52;78.70;97959.59;4717057;30;20139;-61
2021/09/01 03:12:08;;;;;;;21.60;13.95;;;;;;;17.55;78.69;97958.94;4701396;30;20060;-60
2021/09/01 03:14:34;;;;;;;24.45;14.48;;;;;;;17.56;78.26;97955.97;4686930;30;20053;-62
2021/09/01 03:17:00;;;;;;;27.55;15.63;;;;;;;17.51;78.65;97948.09;4717015;30;20057;-60
2021/09/01 03:19:25;;;;;;;23.17;14.07;;;;;;;17.57;78.37;97941.47;4716913;30;20053;-62
2021/09/01 03:21:52;;;;;;;24.63;15.07;;;;;;;17.63;78.20;97950.13;4701434;30;20088;-60
2021/09/01 03:24:19;;;;;;;27.08;15.48;;;;;;;17.65;78.19;97943.34;4715904;30;20132;-58
2021/09/01 03:26:45;;;;;;;27.98;15.25;;;;;;;17.68;78.18;97939.25;4716717;30;20151;-60
2021/09/01 03:29:10;;;;;;;31.80;14.80;;;;;;;17.72;78.01;97926.75;4716764;30;20067;-61
2021/09/01 03:31:36;;;;;;;22.30;14.35;;;;;;;17.77;77.92;97928.50;4701246;30;20143;-61
2021/09/01 03:34:02;;;;;;;28.42;15.70;;;;;;;17.80;77.94;97926.00;4716964;30;20045;-62
2021/09/01 03:36:28;;;;;;;28.25;16.13;;;;;;;17.82;77.92;97921.06;4700827;30;20060;-61
2021/09/01 03:38:53;;;;;;;23.15;14.85;;;;;;;17.83;78.02;97922.66;4716782;30;20136;-61
2021/09/01 03:41:19;;;;;;;22.75;14.07;;;;;;;17.85;76.94;97917.78;4700908;30;20053;-60
2021/09/01 03:43:45;;;;;;;24.83;14.75;;;;;;;17.90;77.30;97909.53;4716498;30;20106;-62
2021/09/01 03:46:11;;;;;;;24.33;14.27;;;;;;;17.97;77.26;97909.06;4716642;30;20427;-60
2021/09/01 03:48:37;;;;;;;25.88;14.40;;;;;;;18.01;77.43;97909.97;4716909;30;20136;-60
2021/09/01 03:51:03;;;;;;;24.15;14.57;;;;;;;18.05;77.11;97902.06;4716258;30;20579;-60
2021/09/01 03:53:29;;;;;;;28.05;14.43;;;;;;;18.10;77.20;97902.69;4715139;30;20156;-60
2021/09/01 03:55:55;;;;;;;23.00;14.10;;;;;;;18.13;76.87;97899.34;4700419;30;20524;-60
2021/09/01 03:58:21;;;;;;;25.60;13.93;;;;;;;18.17;76.55;97899.50;4700292;30;20056;-60
2021/09/01 04:00:46;;;;;;;23.23;13.63;;;;;;;18.20;76.45;97893.47;4700818;30;20049;-62
2021/09/01 04:03:12;;;;;;;31.00;14.07;;;;;;;18.23;76.29;97892.03;4700574;30;20056;-59
2021/09/01 04:05:38;;;;;;;25.38;14.98;;;;;;;18.28;76.37;97892.66;4700558;30;20052;-60
2021/09/01 04:08:05;;;;;;;21.95;13.48;;;;;;;18.27;76.08;97893.00;4714848;30;20060;-60
2021/09/01 04:10:30;;;;;;;24.08;13.90;;;;;;;18.32;76.02;97893.59;4700326;30;20538;-61
2021/09/01 04:12:56;;;;;;;24.67;14.05;;;;;;;18.34;75.62;97894.03;4716353;30;20057;-60
2021/09/01 04:15:22;;;;;;;21.60;12.63;;;;;;;18.31;75.28;97891.22;4716109;30;20045;-61
2021/09/01 04:17:48;;;;;;;26.02;13.25;;;;;;;18.35;75.82;97892.13;4716278;30;20057;-59
2021/09/01 04:20:13;;;;;;;26.05;13.20;;;;;;;18.36;75.90;97886.47;4715959;30;20100;-60
2021/09/01 04:22:39;;;;;;;19.90;13.50;;;;;;;18.38;75.93;97892.28;4716262;30;20060;-60
2021/09/01 04:25:06;;;;;;;20.73;13.00;;;;;;;18.39;75.10;97876.97;4715944;30;20528;-60
2021/09/01 04:27:31;;;;;;;21.10;12.75;;;;;;;18.42;74.97;97881.69;4715954;30;20512;-61
2021/09/01 04:29:57;;;;;;;23.25;12.52;;;;;;;18.37;74.41;97888.00;4714612;30;20049;-61
2021/09/01 04:32:23;;;;;;;18.00;11.93;;;;;;;18.34;74.39;97890.56;4715924;30;20497;-60
2021/09/01 04:34:54;;;;;;;17.42;11.60;;;;;;;18.36;73.71;97888.34;4715873;30;20424;-60
2021/09/01 04:37:20;;;;;;;19.50;12.10;;;;;;;18.38;73.28;97886.94;4699945;30;20053;-61
2021/09/01 04:39:46;;;;;;;22.83;12.32;;;;;;;18.45;73.26;97882.94;4715616;30;20049;-62
2021/09/01 04:42:11;;;;;;;20.05;11.98;;;;;;;18.50;73.15;97874.69;4715832;30;20516;-59
2021/09/01 04:44:37;;;;;;;22.00;12.65;;;;;;;18.56;72.82;97870.69;4715918;30;20049;-61
2021/09/01 04:47:03;;;;;;;20.30;11.98;;;;;;;18.54;72.98;97852.25;4715449;30;20065;-62
2021/09/01 04:49:29;;;;;;;18.98;11.23;;;;;;;18.61;72.05;97857.88;4715850;30;20053;-60
2021/09/01 04:51:54;;;;;;;20.42;11.35;;;;;;;18.62;72.63;97861.34;4715619;30;20467;-60
2021/09/01 04:54:20;;;;;;;17.40;11.27;;;;;;;18.66;71.93;97864.94;4715401;30;20056;-61
2021/09/01 04:56:46;;;;;;;19.25;11.25;;;;;;;18.68;71.78;97862.72;4699458;30;20068;-60
2021/09/01 04:59:12;;;;;;;19.58;11.23;;;;;;;18.71;71.33;97866.66;4715063;30;20102;-59
2021/09/01 05:01:38;;;;;;;18.27;10.63;;;;;;;18.70;71.69;97865.84;4699789;30;20053;-59
2021/09/01 05:04:03;;;;;;;18.80;9.73;;;;;;;18.61;71.71;97865.13;4699624;30;20539;-62
2021/09/01 05:06:29;;;;;;;14.43;10.00;;;;;;;18.50;71.71;97854.03;4715301;30;20053;-59
2021/09/01 05:08:55;;;;;;;17.05;10.60;;;;;;;18.47;71.90;97857.34;4714409;30;20057;-60
2021/09/01 05:11:21;;;;;;;14.90;10.02;;;;;;;18.48;71.69;97856.25;4715238;30;20096;-60
2021/09/01 05:13:47;;;;;;;17.75;10.50;;;;;;;18.46;71.50;97853.09;4715374;30;20136;-59
2021/09/01 05:16:12;;;;;;;23.35;10.63;;;;;;;18.45;71.52;97851.53;4713961;30;20513;-61
2021/09/01 05:18:38;;;;;;;17.48;10.57;;;;;;;18.41;71.97;97839.06;4714954;30;20049;-61
2021/09/01 05:21:05;;;;;;;18.08;10.45;;;;;;;18.39;71.65;97842.88;4717944;30;20051;-60
2021/09/01 05:23:34;;;;;;;18.25;10.30;;;;;;;18.37;72.26;97837.03;4702442;30;20095;-61
2021/09/01 05:26:05;;;;;;;20.45;10.73;;;;;;;18.35;72.80;97831.25;4718834;30;20056;-61
2021/09/01 05:28:36;;;;;;;16.52;10.85;;;;;;;18.33;73.41;97825.41;4718499;30;20183;-59
2021/09/01 05:31:04;;;;;;;17.08;10.65;;;;;;;18.30;74.70;97819.91;4718248;30;20202;-59
2021/09/01 05:33:34;;;;;;;15.55;11.13;;;;;;;18.30;75.23;97826.06;4718085;30;20045;-59
2021/09/01 05:36:00;;;;;;;20.85;12.02;;;;;;;18.29;75.02;97827.16;4718493;30;20132;-60
2021/09/01 05:38:26;;;;;;;18.42;11.10;;;;;;;18.21;76.07;97828.03;4703051;30;20534;-60
2021/09/01 05:40:53;;;;;;;21.45;11.35;;;;;;;18.14;78.94;97819.69;4702919;30;20056;-60
2021/09/01 05:43:21;;;;;;;20.58;11.75;;;;;;;18.07;77.67;97825.56;4702663;30;20115;-60
2021/09/01 05:45:48;;;;;;;18.92;11.38;;;;;;;18.01;77.22;97829.56;4717238;30;20056;-64
2021/09/01 05:48:15;;;;;;;20.00;11.55;;;;;;;18.03;76.40;97823.84;4718314;30;20068;-61
2021/09/01 05:50:44;;;;;;;17.67;10.88;;;;;;;18.01;76.11;97820.72;4718451;30;20064;-61
2021/09/01 05:53:10;;;;;;;17.10;9.30;;;;;;;17.99;74.39;97815.69;4718711;30;20521;-62
2021/09/01 05:55:43;;;;;;;18.77;9.57;;;;;;;17.99;75.02;97815.69;4714675;30;20554;-61
2021/09/01 05:58:13;;;;;;;19.13;9.35;;;;;;;18.03;74.76;97819.28;4717655;30;20068;-61
2021/09/01 06:00:40;;;;;;;17.05;9.45;;;;;;;18.08;74.98;97816.41;4687813;30;20060;-58
2021/09/01 06:03:33;;;;;;;12.25;8.25;;;;;;;18.09;72.52;97817.22;4718295;30;20073;-61
2021/09/01 06:06:07;;;;;;;13.10;8.05;;;;;;;18.19;72.72;97818.72;4717190;30;20427;-60
2021/09/01 06:08:38;;;;;;;17.30;9.18;;;;;;;18.22;73.63;97810.81;4674248;30;20064;-63
2021/09/01 06:11:06;;;;;;;12.85;7.97;;;;;;;18.34;73.64;97815.47;4717109;30;20045;-61
2021/09/01 06:13:32;;;;;;;14.80;8.55;;;;;;;18.40;72.88;97811.47;4717673;30;20153;-61
2021/09/01 06:15:58;;;;;;;13.25;8.52;;;;;;;18.45;73.02;97805.13;4716311;30;20045;-59
2021/09/01 06:18:24;;;;;;;12.90;8.43;;;;;;;18.52;72.65;97806.16;4717795;30;20049;-61
2021/09/01 06:20:52;;;;;;;11.88;7.85;;;;;;;18.59;72.14;97798.38;4717262;30;20454;-61
2021/09/01 06:23:18;;;;;;;12.50;8.00;;;;;;;18.57;71.12;97783.72;4716150;30;20049;-61
2021/09/01 06:25:43;;;;;;;13.82;7.85;;;;;;;18.63;71.22;97782.41;4717410;30;20049;-62
2021/09/01 06:28:09;;;;;;;12.35;8.02;;;;;;;18.73;71.24;97779.34;4717660;30;20517;-63
2021/09/01 06:30:35;;;;;;;15.90;8.95;;;;;;;18.86;71.16;97769.44;4717522;30;20048;-62
2021/09/01 06:33:02;;;;;;;13.25;8.38;;;;;;;18.94;69.75;97755.16;4717833;30;20053;-58
2021/09/01 06:35:28;;;;;;;16.00;8.38;;;;;;;19.14;69.90;97766.94;4717234;30;20461;-60
2021/09/01 06:37:54;;;;;;;14.27;7.72;;;;;;;19.25;67.85;97749.28;4717607;30;20115;-61
2021/09/01 06:40:20;;;;;;;12.35;7.90;;;;;;;19.38;67.68;97755.44;4701105;30;20091;-61
2021/09/01 06:42:46;;;;;;;14.90;8.93;;;;;;;19.49;69.22;97747.72;4716051;30;20057;-60
2021/09/01 06:45:13;;;;;;;15.55;8.68;;;;;;;19.63;68.36;97758.91;4701422;30;20052;-60
2021/09/01 06:47:47;;;;;;;13.63;9.23;;;;;;;19.60;66.93;97740.78;4686792;30;20080;-61
2021/09/01 06:50:15;;;;;;;15.35;8.73;;;;;;;19.65;67.81;97740.59;4701057;30;20053;-61
2021/09/01 06:52:43;;;;;;;14.93;9.27;;;;;;;19.70;67.89;97737.66;4701271;30;20091;-59
2021/09/01 06:55:09;;;;;;;16.15;10.07;;;;;;;19.65;68.74;97727.16;4716374;30;20060;-62
2021/09/01 06:57:35;;;;;;;13.27;9.00;;;;;;;19.63;69.31;97732.03;4717159;30;20053;-60
2021/09/01 07:00:06;;;;;;;15.93;9.20;;;;;;;19.67;68.99;97730.25;4715539;30;20136;-60
2021/09/01 07:02:32;;;;;;;15.10;8.73;;;;;;;19.73;68.39;97726.22;4701493;30;20045;-60
2021/09/01 07:04:58;;;;;;;13.07;9.77;;;;;;;19.76;68.23;97721.31;4701318;30;20049;-60
2021/09/01 07:07:24;;;;;;;15.57;9.07;;;;;;;19.81;68.15;97719.16;4716679;30;20052;-61
2021/09/01 07:09:50;;;;;;;16.77;10.32;;;;;;;19.91;68.14;97725.97;4715654;30;20045;-61
2021/09/01 07:12:16;;;;;;;17.10;9.63;;;;;;;19.94;67.63;97722.59;4701035;30;20111;-63
2021/09/01 07:14:41;;;;;;;12.73;9.23;;;;;;;19.94;66.48;97723.41;4716629;30;20045;-63
2021/09/01 07:17:07;;;;;;;14.52;9.30;;;;;;;19.94;67.04;97722.59;4716852;30;20060;-65
2021/09/01 07:19:33;;;;;;;12.45;9.80;;;;;;;19.91;66.62;97725.97;4716592;30;20413;-62
2021/09/01 07:21:59;;;;;;;14.45;8.73;;;;;;;19.91;66.82;97723.28;4716872;30;20054;-61
2021/09/01 07:24:24;;;;;;;15.18;8.90;;;;;;;19.86;67.05;97724.31;4707415;30;20053;-62
2021/09/01 07:26:50;;;;;;;17.13;8.95;;;;;;;19.71;67.60;97715.03;4696868;30;20231;-63
2021/09/01 07:29:16;;;;;;;16.85;9.57;;;;;;;19.69;67.91;97719.19;4710187;30;20049;-59
2021/09/01 07:31:42;;;;;;;17.52;9.70;;;;;;;19.77;68.01;97720.19;4696005;30;20160;-59
2021/09/01 07:34:09;;;;;;;15.73;9.38;;;;;;;19.78;67.99;97721.75;4712282;30;20144;-61
2021/09/01 07:36:34;;;;;;;14.77;9.65;;;;;;;19.81;68.55;97729.16;4711042;30;20543;-60
2021/09/01 07:39:00;;;;;;;14.88;9.55;;;;;;;19.85;68.62;97733.50;4696747;30;20053;-61
2021/09/01 07:41:26;;;;;;;17.48;9.05;;;;;;;19.91;68.54;97728.66;4712946;30;20059;-60
2021/09/01 07:43:52;;;;;;;13.18;10.00;;;;;;;20.00;68.19;97731.22;4712548;30;20045;-62
2021/09/01 07:46:18;;;;;;;15.18;8.98;;;;;;;20.08;68.26;97727.63;4695290;30;20402;-60
2021/09/01 07:48:44;;;;;;;13.25;9.07;;;;;;;20.11;67.46;97726.94;4697385;30;20064;-61
2021/09/01 07:51:10;;;;;;;12.57;8.50;;;;;;;20.13;67.10;97732.78;4703000;30;20049;-61
2021/09/01 07:53:36;;;;;;;12.73;8.27;;;;;;;20.12;67.15;97723.16;4694916;30;20564;-59
2021/09/01 07:56:02;;;;;;;14.48;8.63;;;;;;;20.09;67.49;97729.19;4695472;30;20051;-60
2021/09/01 07:58:29;;;;;;;16.48;8.90;;;;;;;20.11;67.23;97716.97;4696483;30;20521;-61
2021/09/01 08:00:55;;;;;;;18.63;12.90;;;;;;;20.20;66.74;97722.22;4697690;30;20061;-61
2021/09/01 08:03:20;;;;;;;12.23;7.72;;;;;;;20.23;66.14;97715.38;4696687;30;20057;-60
2021/09/01 08:05:46;;;;;;;11.80;7.53;;;;;;;20.30;65.99;97715.59;4695389;30;20515;-62
2021/09/01 08:08:12;;;;;;;12.15;7.65;;;;;;;20.33;65.52;97715.69;4696425;30;20080;-60
2021/09/01 08:10:38;;;;;;;14.48;8.02;;;;;;;20.34;65.15;97713.75;4698407;30;20136;-61
2021/09/01 08:13:04;;;;;;;13.38;8.05;;;;;;;20.34;65.27;97721.84;4697571;30;20155;-61
2021/09/01 08:15:29;;;;;;;12.15;7.63;;;;;;;20.31;65.34;97714.44;4698064;30;20091;-61
2021/09/01 08:17:55;;;;;;;13.25;8.27;;;;;;;20.39;65.70;97711.63;4697743;30;20474;-60
2021/09/01 08:20:21;;;;;;;14.45;8.43;;;;;;;20.48;65.31;97708.78;4697238;30;20068;-65
2021/09/01 08:22:49;;;;;;;13.25;8.43;;;;;;;20.50;65.44;97701.16;4681927;30;20136;-62
2021/09/01 08:25:15;;;;;;;22.17;15.57;;;;;;;20.48;64.68;97710.69;4698014;30;20061;-63
2021/09/01 08:27:45;;;;;;;16.95;11.48;;;;;;;20.40;64.72;97702.41;4695734;30;20108;-60
2021/09/01 08:30:11;;;;;;;13.50;10.02;;;;;;;20.41;64.81;97698.59;4697525;30;20577;-64
2021/09/01 08:32:37;;;;;;;12.55;7.90;;;;;;;20.39;65.18;97702.75;4697517;30;20049;-61
2021/09/01 08:35:03;;;;;;;12.23;8.10;;;;;;;20.39;64.73;97700.84;4697090;30;20136;-61
2021/09/01 08:37:29;;;;;;;13.23;8.57;;;;;;;20.35;64.62;97710.75;4695636;30;20517;-60
2021/09/01 08:39:55;;;;;;;14.70;8.25;;;;;;;20.32;64.87;97706.03;4681464;30;20126;-62
2021/09/01 08:42:22;;;;;;;11.23;7.72;;;;;;;20.22;65.79;97706.53;4696510;30;20437;-60
2021/09/01 08:44:48;;;;;;;16.42;8.75;;;;;;;20.11;66.22;97698.13;4696757;30;20053;-61
2021/09/01 08:47:15;;;;;;;14.38;9.07;;;;;;;20.01;67.38;97692.47;4693981;30;20513;-61
2021/09/01 08:49:44;;;;;;;14.95;9.57;;;;;;;19.91;68.71;97685.66;4679399;30;20081;-61
2021/09/01 08:52:10;;;;;;;15.07;9.27;;;;;;;19.82;70.36;97679.63;4694862;30;20053;-61
2021/09/01 08:54:36;;;;;;;14.02;8.85;;;;;;;19.77;70.53;97677.19;4696355;30;20073;-62
2021/09/01 08:57:02;;;;;;;14.90;9.65;;;;;;;19.71;70.79;97680.09;4693941;30;20092;-60
2021/09/01 08:59:28;;;;;;;12.30;8.77;;;;;;;19.69;70.32;97684.25;4681113;30;20065;-63
2021/09/01 09:01:55;;;;;;;12.07;8.50;;;;;;;19.61;70.32;97677.06;4694735;30;20128;-61
2021/09/01 09:04:25;;;;;;;17.83;10.68;;;;;;;19.55;71.13;97686.47;4694713;30;20071;-60
2021/09/01 09:06:57;;;;;;;15.25;10.40;;;;;;;19.52;71.66;97682.53;4695657;30;20140;-61
2021/09/01 09:09:30;;;;;;;16.52;9.52;;;;;;;19.48;71.63;97678.97;4694253;30;20115;-62
2021/09/01 09:11:57;;;;;;;15.40;10.55;;;;;;;19.41;72.27;97676.06;4693433;30;20077;-62
2021/09/01 09:14:32;;;;;;;14.30;10.40;;;;;;;19.28;73.45;97686.03;4709891;30;20578;-61
2021/09/01 09:17:03;;;;;;;12.73;9.93;;;;;;;19.23;73.21;97683.56;4696121;30;20058;-62
2021/09/01 09:19:48;;;;;;;15.23;9.63;;;;;;;19.21;73.07;97685.81;4697631;30;20069;-62
2021/09/01 09:22:36;;;;;;;16.85;9.60;;;;;;;19.09;72.80;97688.47;4696893;30;20066;-61
2021/09/01 09:25:19;;;;;;;18.67;10.32;;;;;;;19.04;73.02;97682.22;4696322;30;20127;-60
2021/09/01 09:27:48;;;;;;;24.90;14.35;;;;;;;18.92;75.10;97682.22;4692579;30;20516;-60
2021/09/01 09:30:20;;;;;;;18.17;11.18;;;;;;;18.95;80.00;97675.38;4716247;30;20512;-60
2021/09/01 09:33:09;;;;;;;17.23;9.70;;;;;;;18.89;75.51;97676.72;4713814;30;20132;-61
2021/09/01 09:35:57;;;;;;;13.38;8.95;;;;;;;18.79;76.59;97667.19;4713480;30;20144;-62
2021/09/01 09:38:45;;;;;;;14.80;9.40;;;;;;;18.76;75.80;97660.56;4711422;30;20057;-62
2021/09/01 09:41:24;;;;;;;12.45;8.98;;;;;;;18.75;76.96;97663.59;4713159;30;20044;-60
2021/09/01 09:44:01;;;;;;;13.70;8.35;;;;;;;18.83;75.95;97652.78;4711430;30;20057;-61
2021/09/01 09:46:27;;;;;;;14.27;8.57;;;;;;;18.86;76.03;97651.31;4682387;30;20076;-62
2021/09/01 09:48:53;;;;;;;14.52;8.63;;;;;;;18.93;75.67;97648.84;4695937;30;20508;-60
2021/09/01 09:51:43;;;;;;;12.45;9.23;;;;;;;19.01;75.65;97647.19;4712036;30;20140;-60
2021/09/01 09:54:16;;;;;;;;;;;;;;;19.06;74.97;97647.75;4713033;30;20110;-60
2021/09/01 09:56:42;;;;;;;13.88;8.50;;;;;;;19.12;75.23;97639.47;4712015;30;19931;-58
2021/09/01 09:59:09;;;;;;;16.58;8.52;;;;;;;19.13;73.26;97635.69;4712057;30;20076;-62
2021/09/01 10:01:35;;;;;;;15.13;8.95;;;;;;;19.06;74.22;97625.50;4695039;30;20149;-59
2021/09/01 10:04:01;;;;;;;12.23;9.43;;;;;;;19.08;74.15;97628.63;4711930;30;20566;-63
2021/09/01 10:06:27;;;;;;;13.20;8.43;;;;;;;19.15;73.73;97626.16;4699556;30;20080;-63
2021/09/01 10:08:54;;;;;;;16.02;8.32;;;;;;;19.13;72.92;97624.94;4683666;30;20045;-63
2021/09/01 10:11:21;;;;;;;14.32;9.13;;;;;;;19.17;72.98;97623.13;4710949;30;20057;-60
2021/09/01 10:13:50;;;;;;;15.93;9.05;;;;;;;19.26;73.82;97627.25;4715637;30;20076;-64
2021/09/01 10:16:27;;;;;;;15.40;9.32;;;;;;;19.34;72.85;97617.53;4716018;30;20536;-63
2021/09/01 10:19:20;;;;;;;19.85;9.73;;;;;;;19.42;72.90;97615.84;4684673;30;20052;-63
2021/09/01 10:21:53;;;;;;;15.95;9.38;;;;;;;19.42;71.60;97605.09;4714059;30;20432;-61
2021/09/01 10:24:30;;;;;;;15.00;9.25;;;;;;;19.42;71.73;97607.78;4699569;30;20061;-63
2021/09/01 10:26:59;;;;;;;15.43;8.88;;;;;;;19.44;71.57;97616.28;4714217;30;20052;-63
2021/09/01 10:29:50;;;;;;;15.95;9.35;;;;;;;19.40;72.08;97621.53;4714140;30;20061;-61
2021/09/01 10:32:29;;;;;;;18.98;8.52;;;;;;;19.39;72.25;97614.63;4709287;30;20165;-61
2021/09/01 10:35:16;;;;;;;13.02;8.90;;;;;;;19.40;72.23;97616.16;4713599;30;20135;-62
2021/09/01 10:37:51;;;;;;;14.88;8.90;;;;;;;19.38;71.97;97623.78;4713376;30;20053;-61
2021/09/01 10:40:20;;;;;;;13.82;8.57;;;;;;;19.32;71.75;97624.34;4714376;30;20052;-63
2021/09/01 10:42:47;;;;;;;14.57;8.95;;;;;;;19.38;72.23;97617.63;4713586;30;20057;-61
2021/09/01 10:45:18;;;;;;;13.82;8.95;;;;;;;19.41;72.01;97623.13;4712589;30;20099;-62
2021/09/01 10:47:50;;;;;;;15.50;8.50;;;;;;;19.43;71.66;97620.88;4714340;30;20151;-61
2021/09/01 10:50:16;;;;;;;13.82;8.80;;;;;;;19.48;71.61;97615.28;4713651;30;20822;-62
2021/09/01 10:53:03;;;;;;;14.68;9.07;;;;;;;19.64;71.00;97615.34;4714148;30;20091;-63
2021/09/01 10:55:30;;;;;;;14.55;8.75;;;;;;;19.78;71.07;97612.31;4715819;30;20483;-62
2021/09/01 10:58:34;;;;;;;13.80;9.20;;;;;;;19.97;70.83;97608.97;4714571;30;20060;-61
2021/09/01 11:01:05;;;;;;;14.60;8.52;;;;;;;20.08;69.46;97604.69;4713263;30;20052;-62
2021/09/01 11:03:46;;;;;;;17.80;8.65;;;;;;;20.11;69.54;97603.22;4712800;30;20061;-62
2021/09/01 11:06:23;;;;;;;15.52;9.23;;;;;;;20.27;69.12;97611.34;4684482;30;20060;-63
2021/09/01 11:08:57;;;;;;;11.52;8.45;;;;;;;20.36;68.59;97599.28;4715272;30;20068;-62
2021/09/01 11:11:23;;;;;;;16.08;9.55;;;;;;;20.43;68.88;97598.69;4709103;30;20058;-63
2021/09/01 11:13:49;;;;;;;14.48;9.07;;;;;;;20.46;68.33;97592.59;4695106;30;20095;-64
2021/09/01 11:16:22;;;;;;;14.02;9.52;;;;;;;20.57;68.45;97601.00;4709881;30;20113;-61
2021/09/01 11:19:21;;;;;;;18.27;9.50;;;;;;;20.56;68.88;97605.59;4714239;30;20087;-63
2021/09/01 11:21:47;;;;;;;13.23;9.13;;;;;;;20.48;69.25;97603.81;4699762;30;20621;-60
2021/09/01 11:24:16;;;;;;;13.32;9.50;;;;;;;20.53;69.07;97605.47;4713348;30;20053;-62
2021/09/01 11:26:42;;;;;;;16.80;9.85;;;;;;;20.60;68.97;97605.69;4713859;30;20049;-63